Flight Track Log - Related Links

Times and Time Zones

All times are in EDT time to prevent confusion due to time zone crossing. See the N8378B flight status page for this flight to view local times or setup timezone preferences in your user account.

Time Position Orientation Groundspeed Altitude Reporting Facility
EDT Latitude Longitude Course Direction KTS MPH feet Rate Location/Type
Sat 01:39:45 PM 42.5833 -70.9333 270° West 77 89 700  Level KA90
Sat 01:40:35 PM 42.5833 -70.9667 270° West 84 97 1,200 400 Climbing KA90
Sat 01:41:30 PM 42.6000 -70.9833 324° Northwest 99 114 1,400 261 Climbing KA90
Sat 01:42:30 PM 42.6333 -70.9833 360° North 116 133 1,700 279 Climbing KA90
Sat 01:43:39 PM 42.6667 -70.9500 36° Northeast 110 127 2,000 300 Climbing KA90
Sat 01:44:30 PM 42.6833 -70.9500 360° North 110 127 2,300 308 Climbing KA90
Sat 01:45:36 PM 42.7167 -70.9333 20° North 115 132 2,600 350 Climbing KA90
Sat 01:46:30 PM 42.7500 -70.9333 360° North 108 124 3,000 212 Climbing KA90
Sat 01:47:29 PM 42.7833 -70.9333 360° North 121 139 3,000  Level KA90
Sat 01:48:30 PM 42.8167 -70.9333 360° North 117 135 3,000 -50 Level KA90
Sat 01:49:30 PM 42.8500 -70.9333 360° North 116 133 2,900  Descending KA90
Sat 01:50:24 PM 42.8667 -70.9167 36° Northeast 107 123 3,000 105 Climbing KA90
Sat 01:51:24 PM 42.9000 -70.9167 360° North 118 136 3,100 45 Climbing KA90
Sat 01:52:37 PM 42.9500 -70.9167 360° North 118 136 3,100  Level KA90
Sat 01:53:30 PM 42.9667 -70.9167 360° North 123 142 3,100 -54 Level KA90
Sat 01:54:28 PM 43.0000 -70.9333 340° North 125 144 3,000  Descending KA90
Sat 01:55:36 PM 43.0500 -70.9333 360° North 126 145 3,100 47 Climbing KA90
Sat 01:56:36 PM 43.0833 -70.9500 340° North 134 154 3,100 -53 Level KA90
Sat 01:57:30 PM 43.1167 -70.9500 360° North 126 145 3,000  Descending KA90
Sat 01:58:30 PM 43.1500 -70.9667 340° North 118 136 3,100 50 Climbing KA90
Sat 01:59:30 PM 43.1833 -70.9833 340° North 117 135 3,100 -50 Level KA90
Sat 02:00:30 PM 43.2000 -70.9833 360° North 118 136 3,000 -305 Descending KA90
Sat 02:01:28 PM 43.2333 -70.9833 360° North 137 158 2,500 -500 Descending KA90
Sat 02:02:30 PM 43.2167 -70.9333 115° Southeast 124 143 2,000 -248 Descending KA90
Sat 02:03:29 PM 43.2000 -70.9167 144° Southeast 104 120 2,000 50 Level KA90
Sat 02:04:30 PM 43.1667 -70.9000 160° South 90 104 2,100 -242 Climbing KA90
Sat 02:05:33 PM 43.1500 -70.8833 144° Southeast 88 101 1,500 -500 Descending KA90
Sat 02:06:30 PM 43.1333 -70.8667 144° Southeast 87 100 1,100 -400 Descending KA90
Sat 02:07:33 PM 43.1167 -70.8500 144° Southeast 84 97 700 -113 Descending KA90
Sat 02:09:00 PM 43.0746 -70.8585 188° South  Level FlightAware Approximate
Sat 02:10:03 PM 43.0667 -70.8167 188° South 84 97 700  Level KA90
Sat 02:10:57 PM 43.0500 -70.8000 144° Southeast 80 92 1,200 522 Climbing KA90
Sat 02:11:58 PM 43.0167 -70.8167 200° South 87 100 1,700 462 Climbing KA90
Sat 02:12:54 PM 43.0000 -70.8333 216° Southwest 87 100 2,100 417 Climbing KA90
Sat 02:13:53 PM 42.9833 -70.8500 216° Southwest 91 105 2,500 305 Climbing KA90
Sat 02:14:52 PM 42.9667 -70.8667 216° Southwest 87 100 2,700 240 Climbing KA90
Sat 02:15:58 PM 42.9333 -70.8833 200° South 98 113 3,000 142 Climbing KA90
Sat 02:16:59 PM 42.9167 -70.9000 216° Southwest 96 110 3,000  Level KA90
Sat 02:17:58 PM 42.9000 -70.9167 216° Southwest 92 106 3,000  Level KA90
Sat 02:18:53 PM 42.8833 -70.9333 216° Southwest 89 102 3,000  Level KA90
Sat 02:19:55 PM 42.8500 -70.9500 200° South 94 108 3,000 -254 Level KA90
Sat 02:20:51 PM 42.8333 -70.9833 236° Southwest 100 115 2,500 -536 Descending KA90

Login

Don't have an account? Register now (free) for customized features, flight alerts, and more!